sensor_id;sensor_type;location;lat;lon;timestamp;temperature;humidity
27619;DHT22;15039;50.830;4.730;2022-09-21T00:00:36;10.50;99.90
27619;DHT22;15039;50.830;4.730;2022-09-21T00:03:03;10.50;99.90
27619;DHT22;15039;50.830;4.730;2022-09-21T00:05:30;10.40;99.90
27619;DHT22;15039;50.830;4.730;2022-09-21T00:07:59;10.40;99.90
27619;DHT22;15039;50.830;4.730;2022-09-21T00:10:25;10.30;99.90
27619;DHT22;15039;50.830;4.730;2022-09-21T00:12:51;10.30;99.90
27619;DHT22;15039;50.830;4.730;2022-09-21T00:15:17;10.40;99.90
27619;DHT22;15039;50.830;4.730;2022-09-21T00:17:43;10.30;99.90
27619;DHT22;15039;50.830;4.730;2022-09-21T00:20:09;10.30;99.90
27619;DHT22;15039;50.830;4.730;2022-09-21T00:22:35;10.20;99.90
27619;DHT22;15039;50.830;4.730;2022-09-21T00:25:01;10.20;99.90
27619;DHT22;15039;50.830;4.730;2022-09-21T00:27:30;10.20;99.90
27619;DHT22;15039;50.830;4.730;2022-09-21T00:30:00;10.10;99.90
27619;DHT22;15039;50.830;4.730;2022-09-21T00:32:29;10.20;99.90
27619;DHT22;15039;50.830;4.730;2022-09-21T00:34:59;10.10;99.90
27619;DHT22;15039;50.830;4.730;2022-09-21T00:37:25;10.10;99.90
27619;DHT22;15039;50.830;4.730;2022-09-21T00:39:52;10.10;99.90
27619;DHT22;15039;50.830;4.730;2022-09-21T00:42:24;10.10;99.90
27619;DHT22;15039;50.830;4.730;2022-09-21T00:44:50;10.10;99.90
27619;DHT22;15039;50.830;4.730;2022-09-21T00:47:21;10.10;99.90
27619;DHT22;15039;50.830;4.730;2022-09-21T00:49:50;10.20;99.90
27619;DHT22;15039;50.830;4.730;2022-09-21T00:52:18;10.10;99.90
27619;DHT22;15039;50.830;4.730;2022-09-21T00:55:10;10.00;99.90
27619;DHT22;15039;50.830;4.730;2022-09-21T00:57:34;9.90;99.90
27619;DHT22;15039;50.830;4.730;2022-09-21T01:00:03;9.90;99.90
27619;DHT22;15039;50.830;4.730;2022-09-21T01:02:29;9.90;99.90
27619;DHT22;15039;50.830;4.730;2022-09-21T01:04:55;9.90;99.90
27619;DHT22;15039;50.830;4.730;2022-09-21T01:07:26;9.90;99.90
27619;DHT22;15039;50.830;4.730;2022-09-21T01:09:56;9.90;99.90
27619;DHT22;15039;50.830;4.730;2022-09-21T01:15:34;9.90;99.90
27619;DHT22;15039;50.830;4.730;2022-09-21T01:29:32;9.60;99.90
27619;DHT22;15039;50.830;4.730;2022-09-21T01:32:10;9.50;99.90
27619;DHT22;15039;50.830;4.730;2022-09-21T01:40:08;9.60;99.90
27619;DHT22;15039;50.830;4.730;2022-09-21T01:42:38;9.60;99.90
27619;DHT22;15039;50.830;4.730;2022-09-21T01:45:06;9.40;99.90
27619;DHT22;15039;50.830;4.730;2022-09-21T01:47:34;9.40;99.90
27619;DHT22;15039;50.830;4.730;2022-09-21T01:50:03;9.30;99.90
27619;DHT22;15039;50.830;4.730;2022-09-21T01:53:17;9.30;99.90
27619;DHT22;15039;50.830;4.730;2022-09-21T01:55:41;9.30;99.90
27619;DHT22;15039;50.830;4.730;2022-09-21T01:58:21;9.30;99.90
27619;DHT22;15039;50.830;4.730;2022-09-21T02:00:50;9.30;99.90
27619;DHT22;15039;50.830;4.730;2022-09-21T02:05:55;9.20;99.90
27619;DHT22;15039;50.830;4.730;2022-09-21T02:08:22;9.10;99.90
27619;DHT22;15039;50.830;4.730;2022-09-21T02:10:51;9.20;99.90
27619;DHT22;15039;50.830;4.730;2022-09-21T02:13:19;9.30;99.90
27619;DHT22;15039;50.830;4.730;2022-09-21T02:18:52;9.20;99.90
27619;DHT22;15039;50.830;4.730;2022-09-21T02:21:31;9.10;99.90
27619;DHT22;15039;50.830;4.730;2022-09-21T02:26:34;9.10;99.90
27619;DHT22;15039;50.830;4.730;2022-09-21T02:29:09;9.20;99.90
27619;DHT22;15039;50.830;4.730;2022-09-21T02:31:48;9.10;99.90
27619;DHT22;15039;50.830;4.730;2022-09-21T02:34:18;9.10;99.90
27619;DHT22;15039;50.830;4.730;2022-09-21T02:39:16;9.00;99.90
27619;DHT22;15039;50.830;4.730;2022-09-21T02:41:45;9.00;99.90
27619;DHT22;15039;50.830;4.730;2022-09-21T02:44:32;9.10;99.90
27619;DHT22;15039;50.830;4.730;2022-09-21T02:47:25;9.10;99.90
27619;DHT22;15039;50.830;4.730;2022-09-21T02:50:00;9.10;99.90
27619;DHT22;15039;50.830;4.730;2022-09-21T02:52:29;9.10;99.90
27619;DHT22;15039;50.830;4.730;2022-09-21T02:54:56;9.00;99.90
27619;DHT22;15039;50.830;4.730;2022-09-21T02:57:23;9.10;99.90
27619;DHT22;15039;50.830;4.730;2022-09-21T02:59:50;9.10;99.90
27619;DHT22;15039;50.830;4.730;2022-09-21T03:02:22;8.90;99.90
27619;DHT22;15039;50.830;4.730;2022-09-21T03:04:49;8.90;99.90
27619;DHT22;15039;50.830;4.730;2022-09-21T03:07:16;8.90;99.90
27619;DHT22;15039;50.830;4.730;2022-09-21T03:09:42;8.80;99.90
27619;DHT22;15039;50.830;4.730;2022-09-21T03:12:08;8.80;99.90
27619;DHT22;15039;50.830;4.730;2022-09-21T03:14:34;8.80;99.90
27619;DHT22;15039;50.830;4.730;2022-09-21T03:17:02;8.90;99.90
27619;DHT22;15039;50.830;4.730;2022-09-21T03:19:28;8.80;99.90
27619;DHT22;15039;50.830;4.730;2022-09-21T03:22:01;8.80;99.90
27619;DHT22;15039;50.830;4.730;2022-09-21T03:24:27;8.80;99.90
27619;DHT22;15039;50.830;4.730;2022-09-21T03:27:16;8.80;99.90
27619;DHT22;15039;50.830;4.730;2022-09-21T03:29:42;8.80;99.90
27619;DHT22;15039;50.830;4.730;2022-09-21T03:32:07;8.80;99.90
27619;DHT22;15039;50.830;4.730;2022-09-21T03:34:33;8.70;99.90
27619;DHT22;15039;50.830;4.730;2022-09-21T03:37:03;8.70;99.90
27619;DHT22;15039;50.830;4.730;2022-09-21T03:39:30;8.70;99.90
27619;DHT22;15039;50.830;4.730;2022-09-21T03:41:57;8.70;99.90
27619;DHT22;15039;50.830;4.730;2022-09-21T03:44:24;8.60;99.90
27619;DHT22;15039;50.830;4.730;2022-09-21T03:46:50;8.60;99.90
27619;DHT22;15039;50.830;4.730;2022-09-21T03:49:16;8.60;99.90
27619;DHT22;15039;50.830;4.730;2022-09-21T03:51:45;8.50;99.90
27619;DHT22;15039;50.830;4.730;2022-09-21T03:54:11;8.50;99.90
27619;DHT22;15039;50.830;4.730;2022-09-21T03:56:36;8.50;99.90
27619;DHT22;15039;50.830;4.730;2022-09-21T03:59:03;8.40;99.90
27619;DHT22;15039;50.830;4.730;2022-09-21T04:01:29;8.40;99.90
27619;DHT22;15039;50.830;4.730;2022-09-21T04:03:58;8.40;99.90
27619;DHT22;15039;50.830;4.730;2022-09-21T04:06:24;8.50;99.90
27619;DHT22;15039;50.830;4.730;2022-09-21T04:08:49;8.50;99.90
27619;DHT22;15039;50.830;4.730;2022-09-21T04:11:18;8.40;99.90
27619;DHT22;15039;50.830;4.730;2022-09-21T04:13:51;8.40;99.90
27619;DHT22;15039;50.830;4.730;2022-09-21T04:16:24;8.40;99.90
27619;DHT22;15039;50.830;4.730;2022-09-21T04:18:50;8.30;99.90
27619;DHT22;15039;50.830;4.730;2022-09-21T04:21:23;8.40;99.90
27619;DHT22;15039;50.830;4.730;2022-09-21T04:23:49;8.30;99.90
27619;DHT22;15039;50.830;4.730;2022-09-21T04:26:23;8.10;99.90
27619;DHT22;15039;50.830;4.730;2022-09-21T04:28:54;8.20;99.90
27619;DHT22;15039;50.830;4.730;2022-09-21T04:31:25;8.10;99.90
27619;DHT22;15039;50.830;4.730;2022-09-21T04:33:56;8.20;99.90
27619;DHT22;15039;50.830;4.730;2022-09-21T04:36:26;8.30;99.90
27619;DHT22;15039;50.830;4.730;2022-09-21T04:38:53;8.40;99.90
27619;DHT22;15039;50.830;4.730;2022-09-21T04:41:20;8.20;99.90
27619;DHT22;15039;50.830;4.730;2022-09-21T04:43:47;8.20;99.90
27619;DHT22;15039;50.830;4.730;2022-09-21T04:46:15;8.20;99.90
27619;DHT22;15039;50.830;4.730;2022-09-21T04:48:41;8.10;99.90
27619;DHT22;15039;50.830;4.730;2022-09-21T04:51:08;8.00;99.90
27619;DHT22;15039;50.830;4.730;2022-09-21T04:53:36;8.00;99.90
27619;DHT22;15039;50.830;4.730;2022-09-21T04:56:06;8.10;99.90
27619;DHT22;15039;50.830;4.730;2022-09-21T04:58:35;8.10;99.90
27619;DHT22;15039;50.830;4.730;2022-09-21T05:01:07;8.10;99.90
27619;DHT22;15039;50.830;4.730;2022-09-21T05:03:35;8.10;99.90
27619;DHT22;15039;50.830;4.730;2022-09-21T05:06:01;8.00;99.90
27619;DHT22;15039;50.830;4.730;2022-09-21T05:08:27;8.00;99.90
27619;DHT22;15039;50.830;4.730;2022-09-21T05:11:16;8.10;99.90
27619;DHT22;15039;50.830;4.730;2022-09-21T05:13:48;8.00;99.90
27619;DHT22;15039;50.830;4.730;2022-09-21T05:16:15;8.00;99.90
27619;DHT22;15039;50.830;4.730;2022-09-21T05:18:41;8.10;99.90
27619;DHT22;15039;50.830;4.730;2022-09-21T05:21:07;8.00;99.90
27619;DHT22;15039;50.830;4.730;2022-09-21T05:23:35;8.00;99.90
27619;DHT22;15039;50.830;4.730;2022-09-21T05:26:00;8.00;99.90
27619;DHT22;15039;50.830;4.730;2022-09-21T05:28:27;8.00;99.90
27619;DHT22;15039;50.830;4.730;2022-09-21T05:33:22;8.00;99.90
27619;DHT22;15039;50.830;4.730;2022-09-21T05:36:01;8.10;99.90
27619;DHT22;15039;50.830;4.730;2022-09-21T05:38:27;8.10;99.90
27619;DHT22;15039;50.830;4.730;2022-09-21T05:40:54;8.10;99.90
27619;DHT22;15039;50.830;4.730;2022-09-21T05:43:23;8.00;99.90
27619;DHT22;15039;50.830;4.730;2022-09-21T05:46:04;8.00;99.90
27619;DHT22;15039;50.830;4.730;2022-09-21T05:48:40;8.10;99.90
27619;DHT22;15039;50.830;4.730;2022-09-21T05:58:56;8.30;99.90
27619;DHT22;15039;50.830;4.730;2022-09-21T06:01:37;8.30;99.90
27619;DHT22;15039;50.830;4.730;2022-09-21T06:04:10;8.40;99.90
27619;DHT22;15039;50.830;4.730;2022-09-21T06:06:41;8.40;99.90
27619;DHT22;15039;50.830;4.730;2022-09-21T06:09:06;8.50;99.90
27619;DHT22;15039;50.830;4.730;2022-09-21T06:11:32;8.60;99.90
27619;DHT22;15039;50.830;4.730;2022-09-21T06:13:59;8.60;99.90
27619;DHT22;15039;50.830;4.730;2022-09-21T06:16:25;8.60;99.90
27619;DHT22;15039;50.830;4.730;2022-09-21T06:18:51;8.70;99.90
27619;DHT22;15039;50.830;4.730;2022-09-21T06:21:17;8.80;99.90
27619;DHT22;15039;50.830;4.730;2022-09-21T06:23:43;8.90;99.90
27619;DHT22;15039;50.830;4.730;2022-09-21T06:26:12;8.90;99.90
27619;DHT22;15039;50.830;4.730;2022-09-21T06:28:38;9.00;99.90
27619;DHT22;15039;50.830;4.730;2022-09-21T06:31:03;9.10;99.90
27619;DHT22;15039;50.830;4.730;2022-09-21T06:33:29;9.10;99.90
27619;DHT22;15039;50.830;4.730;2022-09-21T06:35:57;9.10;99.90
27619;DHT22;15039;50.830;4.730;2022-09-21T06:38:24;9.10;99.90
27619;DHT22;15039;50.830;4.730;2022-09-21T06:40:51;9.10;99.90
27619;DHT22;15039;50.830;4.730;2022-09-21T06:43:18;9.00;99.90
27619;DHT22;15039;50.830;4.730;2022-09-21T06:45:53;8.90;99.90
27619;DHT22;15039;50.830;4.730;2022-09-21T06:48:20;9.00;99.90
27619;DHT22;15039;50.830;4.730;2022-09-21T06:50:47;9.00;99.90
27619;DHT22;15039;50.830;4.730;2022-09-21T06:53:13;9.10;99.90
27619;DHT22;15039;50.830;4.730;2022-09-21T06:55:39;9.30;99.90
27619;DHT22;15039;50.830;4.730;2022-09-21T06:58:05;9.30;99.90
27619;DHT22;15039;50.830;4.730;2022-09-21T07:00:31;9.50;99.90
27619;DHT22;15039;50.830;4.730;2022-09-21T07:02:57;9.40;99.90
27619;DHT22;15039;50.830;4.730;2022-09-21T07:05:23;9.50;99.90
27619;DHT22;15039;50.830;4.730;2022-09-21T07:07:49;9.60;99.90
27619;DHT22;15039;50.830;4.730;2022-09-21T07:10:15;9.80;99.90
27619;DHT22;15039;50.830;4.730;2022-09-21T07:12:41;9.90;99.90
27619;DHT22;15039;50.830;4.730;2022-09-21T07:15:08;10.00;99.90
27619;DHT22;15039;50.830;4.730;2022-09-21T07:17:36;10.20;99.90
27619;DHT22;15039;50.830;4.730;2022-09-21T07:20:03;10.10;99.90
27619;DHT22;15039;50.830;4.730;2022-09-21T07:22:34;10.00;99.90
27619;DHT22;15039;50.830;4.730;2022-09-21T07:25:00;10.10;99.90
27619;DHT22;15039;50.830;4.730;2022-09-21T07:27:28;10.00;99.90
27619;DHT22;15039;50.830;4.730;2022-09-21T07:29:54;10.00;99.90
27619;DHT22;15039;50.830;4.730;2022-09-21T07:32:22;10.00;99.90
27619;DHT22;15039;50.830;4.730;2022-09-21T07:34:49;10.00;99.90
27619;DHT22;15039;50.830;4.730;2022-09-21T07:37:14;10.00;99.90
27619;DHT22;15039;50.830;4.730;2022-09-21T07:39:40;10.00;99.90
27619;DHT22;15039;50.830;4.730;2022-09-21T07:42:06;10.10;99.90
27619;DHT22;15039;50.830;4.730;2022-09-21T07:44:32;10.00;99.90
27619;DHT22;15039;50.830;4.730;2022-09-21T07:46:58;10.20;99.90
27619;DHT22;15039;50.830;4.730;2022-09-21T07:49:25;10.30;99.90
27619;DHT22;15039;50.830;4.730;2022-09-21T07:51:50;10.40;99.90
27619;DHT22;15039;50.830;4.730;2022-09-21T07:54:19;10.40;99.90
27619;DHT22;15039;50.830;4.730;2022-09-21T07:56:48;10.50;99.90
27619;DHT22;15039;50.830;4.730;2022-09-21T07:59:33;10.70;99.90
27619;DHT22;15039;50.830;4.730;2022-09-21T08:01:59;10.80;99.90
27619;DHT22;15039;50.830;4.730;2022-09-21T08:04:28;10.90;99.90
27619;DHT22;15039;50.830;4.730;2022-09-21T08:06:53;11.10;99.90
27619;DHT22;15039;50.830;4.730;2022-09-21T08:09:25;11.30;99.90
27619;DHT22;15039;50.830;4.730;2022-09-21T08:11:55;11.60;99.90
27619;DHT22;15039;50.830;4.730;2022-09-21T08:14:25;11.70;99.90
27619;DHT22;15039;50.830;4.730;2022-09-21T08:16:51;11.80;99.90
27619;DHT22;15039;50.830;4.730;2022-09-21T08:19:16;11.80;99.90
27619;DHT22;15039;50.830;4.730;2022-09-21T08:21:42;11.80;99.90
27619;DHT22;15039;50.830;4.730;2022-09-21T08:24:09;11.90;99.90
27619;DHT22;15039;50.830;4.730;2022-09-21T08:26:35;12.00;99.90
27619;DHT22;15039;50.830;4.730;2022-09-21T08:29:01;12.10;99.90
27619;DHT22;15039;50.830;4.730;2022-09-21T08:31:27;12.20;99.90
27619;DHT22;15039;50.830;4.730;2022-09-21T08:33:54;12.30;99.90
27619;DHT22;15039;50.830;4.730;2022-09-21T08:36:21;12.40;99.90
27619;DHT22;15039;50.830;4.730;2022-09-21T08:38:47;12.50;99.90
27619;DHT22;15039;50.830;4.730;2022-09-21T08:41:18;12.60;99.90
27619;DHT22;15039;50.830;4.730;2022-09-21T08:43:51;12.60;99.90
27619;DHT22;15039;50.830;4.730;2022-09-21T08:46:26;12.70;99.90
27619;DHT22;15039;50.830;4.730;2022-09-21T08:48:59;12.80;99.90
27619;DHT22;15039;50.830;4.730;2022-09-21T08:51:43;12.80;99.90
27619;DHT22;15039;50.830;4.730;2022-09-21T08:57:14;12.90;99.90
27619;DHT22;15039;50.830;4.730;2022-09-21T08:59:44;13.20;99.90
27619;DHT22;15039;50.830;4.730;2022-09-21T09:10:44;13.80;99.90
27619;DHT22;15039;50.830;4.730;2022-09-21T09:16:04;13.80;99.90
27619;DHT22;15039;50.830;4.730;2022-09-21T09:19:03;14.00;99.90
27619;DHT22;15039;50.830;4.730;2022-09-21T09:21:40;13.90;99.90
27619;DHT22;15039;50.830;4.730;2022-09-21T09:24:18;13.90;99.90
27619;DHT22;15039;50.830;4.730;2022-09-21T09:32:10;14.20;99.90
27619;DHT22;15039;50.830;4.730;2022-09-21T09:34:44;14.30;99.90
27619;DHT22;15039;50.830;4.730;2022-09-21T09:37:16;14.30;99.90
27619;DHT22;15039;50.830;4.730;2022-09-21T09:39:44;14.30;99.90
27619;DHT22;15039;50.830;4.730;2022-09-21T09:50:27;14.90;99.90
27619;DHT22;15039;50.830;4.730;2022-09-21T09:53:01;14.80;99.90
27619;DHT22;15039;50.830;4.730;2022-09-21T09:55:36;15.00;99.90
27619;DHT22;15039;50.830;4.730;2022-09-21T09:58:03;15.20;99.90
27619;DHT22;15039;50.830;4.730;2022-09-21T10:00:29;15.30;99.90
27619;DHT22;15039;50.830;4.730;2022-09-21T10:02:56;15.30;99.90
27619;DHT22;15039;50.830;4.730;2022-09-21T10:05:34;15.40;99.90
27619;DHT22;15039;50.830;4.730;2022-09-21T10:08:03;15.50;99.90
27619;DHT22;15039;50.830;4.730;2022-09-21T10:10:35;15.60;99.90
27619;DHT22;15039;50.830;4.730;2022-09-21T10:13:29;15.70;99.90
27619;DHT22;15039;50.830;4.730;2022-09-21T10:18:51;15.80;99.90
27619;DHT22;15039;50.830;4.730;2022-09-21T10:21:22;15.80;99.90
27619;DHT22;15039;50.830;4.730;2022-09-21T10:26:44;16.30;99.90
27619;DHT22;15039;50.830;4.730;2022-09-21T10:32:04;16.80;99.90
27619;DHT22;15039;50.830;4.730;2022-09-21T10:34:33;17.10;99.90
27619;DHT22;15039;50.830;4.730;2022-09-21T10:37:01;17.30;99.90
27619;DHT22;15039;50.830;4.730;2022-09-21T10:39:30;17.40;99.90
27619;DHT22;15039;50.830;4.730;2022-09-21T10:42:10;17.50;99.90
27619;DHT22;15039;50.830;4.730;2022-09-21T10:47:35;18.10;99.90
27619;DHT22;15039;50.830;4.730;2022-09-21T10:50:05;18.40;99.90
27619;DHT22;15039;50.830;4.730;2022-09-21T10:52:36;18.40;99.90
27619;DHT22;15039;50.830;4.730;2022-09-21T10:55:04;18.70;99.90
27619;DHT22;15039;50.830;4.730;2022-09-21T10:57:31;18.90;99.90
27619;DHT22;15039;50.830;4.730;2022-09-21T10:59:57;18.90;99.90
27619;DHT22;15039;50.830;4.730;2022-09-21T11:02:33;18.80;99.90
27619;DHT22;15039;50.830;4.730;2022-09-21T11:05:15;19.00;99.90
27619;DHT22;15039;50.830;4.730;2022-09-21T11:15:53;19.20;99.90
27619;DHT22;15039;50.830;4.730;2022-09-21T11:18:39;19.20;99.90
27619;DHT22;15039;50.830;4.730;2022-09-21T11:21:16;19.30;99.90
27619;DHT22;15039;50.830;4.730;2022-09-21T11:26:57;19.60;99.90
27619;DHT22;15039;50.830;4.730;2022-09-21T11:30:13;19.60;99.90
27619;DHT22;15039;50.830;4.730;2022-09-21T11:44:04;19.20;99.90
27619;DHT22;15039;50.830;4.730;2022-09-21T12:09:41;18.80;99.90
27619;DHT22;15039;50.830;4.730;2022-09-21T12:12:28;18.80;99.90
27619;DHT22;15039;50.830;4.730;2022-09-21T12:23:42;18.70;99.90
27619;DHT22;15039;50.830;4.730;2022-09-21T12:26:09;18.40;99.90
27619;DHT22;15039;50.830;4.730;2022-09-21T12:28:45;18.20;99.90
27619;DHT22;15039;50.830;4.730;2022-09-21T12:31:20;18.30;99.90
27619;DHT22;15039;50.830;4.730;2022-09-21T12:33:51;18.20;99.90
27619;DHT22;15039;50.830;4.730;2022-09-21T12:36:32;18.40;99.90
27619;DHT22;15039;50.830;4.730;2022-09-21T12:39:26;18.80;99.30
27619;DHT22;15039;50.830;4.730;2022-09-21T12:41:58;19.10;99.60
27619;DHT22;15039;50.830;4.730;2022-09-21T12:44:47;19.20;99.90
27619;DHT22;15039;50.830;4.730;2022-09-21T12:47:38;19.10;99.90
27619;DHT22;15039;50.830;4.730;2022-09-21T12:50:18;19.20;99.90
27619;DHT22;15039;50.830;4.730;2022-09-21T12:52:45;19.20;99.80
27619;DHT22;15039;50.830;4.730;2022-09-21T12:55:39;19.40;99.70
27619;DHT22;15039;50.830;4.730;2022-09-21T13:01:26;19.40;98.00
27619;DHT22;15039;50.830;4.730;2022-09-21T13:09:18;19.30;97.40
27619;DHT22;15039;50.830;4.730;2022-09-21T13:11:54;19.10;97.80
27619;DHT22;15039;50.830;4.730;2022-09-21T13:14:23;19.00;97.90
27619;DHT22;15039;50.830;4.730;2022-09-21T13:16:55;19.20;98.30
27619;DHT22;15039;50.830;4.730;2022-09-21T13:19:25;19.40;99.00
27619;DHT22;15039;50.830;4.730;2022-09-21T13:24:41;19.50;98.60
27619;DHT22;15039;50.830;4.730;2022-09-21T13:27:07;19.60;98.20
27619;DHT22;15039;50.830;4.730;2022-09-21T13:29:35;19.60;97.60
27619;DHT22;15039;50.830;4.730;2022-09-21T13:37:29;19.90;97.40
27619;DHT22;15039;50.830;4.730;2022-09-21T13:47:43;20.10;98.00
27619;DHT22;15039;50.830;4.730;2022-09-21T13:50:11;20.10;97.80
27619;DHT22;15039;50.830;4.730;2022-09-21T13:52:46;20.00;97.80
27619;DHT22;15039;50.830;4.730;2022-09-21T13:57:59;19.60;97.30
27619;DHT22;15039;50.830;4.730;2022-09-21T14:03:02;19.10;97.70
27619;DHT22;15039;50.830;4.730;2022-09-21T14:05:44;18.90;97.80
27619;DHT22;15039;50.830;4.730;2022-09-21T14:11:28;18.70;97.90
27619;DHT22;15039;50.830;4.730;2022-09-21T14:13:43;18.70;98.00
27619;DHT22;15039;50.830;4.730;2022-09-21T14:24:39;19.50;97.00
27619;DHT22;15039;50.830;4.730;2022-09-21T14:30:04;19.80;96.60
27619;DHT22;15039;50.830;4.730;2022-09-21T14:32:40;20.00;97.20
27619;DHT22;15039;50.830;4.730;2022-09-21T14:35:22;20.20;97.10
27619;DHT22;15039;50.830;4.730;2022-09-21T14:37:55;20.30;96.10
27619;DHT22;15039;50.830;4.730;2022-09-21T14:40:23;20.50;96.40
27619;DHT22;15039;50.830;4.730;2022-09-21T14:42:54;20.50;96.50
27619;DHT22;15039;50.830;4.730;2022-09-21T14:45:33;20.60;95.70
27619;DHT22;15039;50.830;4.730;2022-09-21T14:48:12;20.60;94.90
27619;DHT22;15039;50.830;4.730;2022-09-21T14:50:52;20.70;95.10
27619;DHT22;15039;50.830;4.730;2022-09-21T15:02:21;19.50;96.20
27619;DHT22;15039;50.830;4.730;2022-09-21T15:10:43;19.10;97.30
27619;DHT22;15039;50.830;4.730;2022-09-21T15:13:49;19.00;97.60
27619;DHT22;15039;50.830;4.730;2022-09-21T15:21:43;18.60;98.10
27619;DHT22;15039;50.830;4.730;2022-09-21T15:24:30;18.60;98.00
27619;DHT22;15039;50.830;4.730;2022-09-21T15:27:11;18.60;98.70
27619;DHT22;15039;50.830;4.730;2022-09-21T15:29:43;18.40;98.70
27619;DHT22;15039;50.830;4.730;2022-09-21T15:34:57;18.40;99.30
27619;DHT22;15039;50.830;4.730;2022-09-21T15:37:27;18.30;99.60
27619;DHT22;15039;50.830;4.730;2022-09-21T15:40:00;18.30;99.60
27619;DHT22;15039;50.830;4.730;2022-09-21T15:42:26;18.40;99.30
27619;DHT22;15039;50.830;4.730;2022-09-21T15:45:09;18.50;99.30
27619;DHT22;15039;50.830;4.730;2022-09-21T15:47:39;18.50;99.10
27619;DHT22;15039;50.830;4.730;2022-09-21T15:50:14;18.60;98.90
27619;DHT22;15039;50.830;4.730;2022-09-21T15:52:46;18.50;99.10
27619;DHT22;15039;50.830;4.730;2022-09-21T15:55:19;18.50;99.10
27619;DHT22;15039;50.830;4.730;2022-09-21T15:57:48;18.50;98.40
27619;DHT22;15039;50.830;4.730;2022-09-21T16:02:47;18.60;98.80
27619;DHT22;15039;50.830;4.730;2022-09-21T16:05:20;18.70;98.60
27619;DHT22;15039;50.830;4.730;2022-09-21T16:07:46;18.70;98.80
27619;DHT22;15039;50.830;4.730;2022-09-21T16:10:35;18.70;98.80
27619;DHT22;15039;50.830;4.730;2022-09-21T16:13:21;18.70;99.20
27619;DHT22;15039;50.830;4.730;2022-09-21T16:16:11;18.60;99.50
27619;DHT22;15039;50.830;4.730;2022-09-21T16:18:44;18.50;99.70
27619;DHT22;15039;50.830;4.730;2022-09-21T16:21:19;18.50;99.90
27619;DHT22;15039;50.830;4.730;2022-09-21T16:23:48;18.40;99.90
27619;DHT22;15039;50.830;4.730;2022-09-21T16:26:30;18.50;99.80
27619;DHT22;15039;50.830;4.730;2022-09-21T16:31:34;18.60;99.80
27619;DHT22;15039;50.830;4.730;2022-09-21T16:34:48;18.70;99.50
27619;DHT22;15039;50.830;4.730;2022-09-21T16:36:51;18.70;99.60
27619;DHT22;15039;50.830;4.730;2022-09-21T16:39:19;18.60;99.90
27619;DHT22;15039;50.830;4.730;2022-09-21T16:41:57;18.40;99.90
27619;DHT22;15039;50.830;4.730;2022-09-21T16:44:27;18.40;99.90
27619;DHT22;15039;50.830;4.730;2022-09-21T16:47:00;18.30;99.90
27619;DHT22;15039;50.830;4.730;2022-09-21T16:49:30;18.40;99.90
27619;DHT22;15039;50.830;4.730;2022-09-21T16:51:57;18.20;99.90
27619;DHT22;15039;50.830;4.730;2022-09-21T16:54:24;18.20;99.90
27619;DHT22;15039;50.830;4.730;2022-09-21T16:56:54;18.30;99.90
27619;DHT22;15039;50.830;4.730;2022-09-21T16:59:21;18.20;99.90
27619;DHT22;15039;50.830;4.730;2022-09-21T17:01:52;18.10;99.90
27619;DHT22;15039;50.830;4.730;2022-09-21T17:04:27;18.00;99.90
27619;DHT22;15039;50.830;4.730;2022-09-21T17:06:53;17.90;99.90
27619;DHT22;15039;50.830;4.730;2022-09-21T17:09:30;17.90;99.90
27619;DHT22;15039;50.830;4.730;2022-09-21T17:12:00;17.70;99.90
27619;DHT22;15039;50.830;4.730;2022-09-21T17:14:31;17.50;99.90
27619;DHT22;15039;50.830;4.730;2022-09-21T17:17:05;17.50;99.90
27619;DHT22;15039;50.830;4.730;2022-09-21T17:19:33;17.50;99.90
27619;DHT22;15039;50.830;4.730;2022-09-21T17:22:04;17.30;99.90
27619;DHT22;15039;50.830;4.730;2022-09-21T17:24:31;17.30;99.90
27619;DHT22;15039;50.830;4.730;2022-09-21T17:26:57;17.10;99.90
27619;DHT22;15039;50.830;4.730;2022-09-21T17:29:27;17.00;99.90
27619;DHT22;15039;50.830;4.730;2022-09-21T17:32:01;16.80;99.90
27619;DHT22;15039;50.830;4.730;2022-09-21T17:34:28;16.60;99.90
27619;DHT22;15039;50.830;4.730;2022-09-21T17:36:56;16.50;99.90
27619;DHT22;15039;50.830;4.730;2022-09-21T17:39:23;16.40;99.90
27619;DHT22;15039;50.830;4.730;2022-09-21T17:49:41;15.90;99.90
27619;DHT22;15039;50.830;4.730;2022-09-21T17:52:15;15.90;99.90
27619;DHT22;15039;50.830;4.730;2022-09-21T17:55:00;15.80;99.90
27619;DHT22;15039;50.830;4.730;2022-09-21T17:57:45;15.60;99.90
27619;DHT22;15039;50.830;4.730;2022-09-21T18:00:21;15.50;99.90
27619;DHT22;15039;50.830;4.730;2022-09-21T18:02:48;15.30;99.90
27619;DHT22;15039;50.830;4.730;2022-09-21T18:05:25;15.20;99.90
27619;DHT22;15039;50.830;4.730;2022-09-21T18:07:51;15.20;99.90
27619;DHT22;15039;50.830;4.730;2022-09-21T18:10:19;15.20;99.90
27619;DHT22;15039;50.830;4.730;2022-09-21T18:12:51;15.20;99.90
27619;DHT22;15039;50.830;4.730;2022-09-21T18:15:49;15.00;99.90
27619;DHT22;15039;50.830;4.730;2022-09-21T18:21:11;14.70;99.90
27619;DHT22;15039;50.830;4.730;2022-09-21T18:26:15;14.70;99.90
27619;DHT22;15039;50.830;4.730;2022-09-21T18:28:47;14.60;99.90
27619;DHT22;15039;50.830;4.730;2022-09-21T18:37:54;14.20;99.90
27619;DHT22;15039;50.830;4.730;2022-09-21T18:45:35;14.10;99.90
27619;DHT22;15039;50.830;4.730;2022-09-21T18:51:03;14.10;99.90
27619;DHT22;15039;50.830;4.730;2022-09-21T18:53:46;14.00;99.90
27619;DHT22;15039;50.830;4.730;2022-09-21T18:56:13;13.80;99.90
27619;DHT22;15039;50.830;4.730;2022-09-21T18:58:40;13.70;99.90
27619;DHT22;15039;50.830;4.730;2022-09-21T19:01:12;13.70;99.90
27619;DHT22;15039;50.830;4.730;2022-09-21T19:03:39;13.60;99.90
27619;DHT22;15039;50.830;4.730;2022-09-21T19:06:12;13.60;99.90
27619;DHT22;15039;50.830;4.730;2022-09-21T19:08:44;13.60;99.90
27619;DHT22;15039;50.830;4.730;2022-09-21T19:11:46;13.50;99.90
27619;DHT22;15039;50.830;4.730;2022-09-21T19:25:02;13.30;99.90
27619;DHT22;15039;50.830;4.730;2022-09-21T19:30:12;13.20;99.90
27619;DHT22;15039;50.830;4.730;2022-09-21T19:37:53;13.10;99.90
27619;DHT22;15039;50.830;4.730;2022-09-21T19:40:22;13.10;99.90
27619;DHT22;15039;50.830;4.730;2022-09-21T19:46:00;13.00;99.90
27619;DHT22;15039;50.830;4.730;2022-09-21T19:48:29;13.00;99.90
27619;DHT22;15039;50.830;4.730;2022-09-21T19:51:00;12.90;99.90
27619;DHT22;15039;50.830;4.730;2022-09-21T19:53:26;12.90;99.90
27619;DHT22;15039;50.830;4.730;2022-09-21T19:56:13;13.00;99.90
27619;DHT22;15039;50.830;4.730;2022-09-21T19:58:58;12.90;99.90
27619;DHT22;15039;50.830;4.730;2022-09-21T20:01:50;12.80;99.90
27619;DHT22;15039;50.830;4.730;2022-09-21T20:04:25;12.70;99.90
27619;DHT22;15039;50.830;4.730;2022-09-21T20:06:57;12.60;99.90
27619;DHT22;15039;50.830;4.730;2022-09-21T20:09:38;12.60;99.90
27619;DHT22;15039;50.830;4.730;2022-09-21T20:14:55;12.50;99.90
27619;DHT22;15039;50.830;4.730;2022-09-21T20:17:34;12.50;99.90
27619;DHT22;15039;50.830;4.730;2022-09-21T20:20:22;12.50;99.90